Tiempo atmosférico en la estación meteorológica de Ordizia, Gipuzkoa (290 m.)



Fecha
DESCASC
Temp. máxima en grados centígrados (hora)
DESCASC
Temp. mínima en grados centígrados (hora)
DESCASC
Temp. media en grados centígrados
DESCASC
Racha de viento máxima en m/sg (hora)
DESCASC
Velocidad máxima media en intervalos de 10 minutos(hora)
DESCASC
Precipitaciones diarias en mm
DESCASC
Precipitaciones de 00:00 a 06:00 en mm
DESCASC
Precipitaciones de 06:00 a 12:00 en mm
DESCASC
Precipitaciones de 12:00 a 18:00 en mm
DESCASC
Precipitaciones de 18:00 a 24:00 en mm
DESCASC
25-02-2021 15.9 (14:30) 11 (08:10) 13.4 12.22 (03:20) 6.39 (02:40) 0 0 0 0 0
24-02-2021 18.1 (14:40) 12.9 (05:20) 15.5 17.5 (02:20) 10.28 (02:50) 0 0 0 0 0
23-02-2021 16.8 (15:10) 5.4 (02:10) 11.1 18.06 (14:30) 8.61 (11:40) 0.2 0.2 0 0 0
22-02-2021 9.2 (00:00) 5.2 (08:50) 7.2 5.28 (00:30) 3.61 (00:40) 48.8 27.2 20.6 1 0
21-02-2021 15.6 (12:30) 9.2 (00:00) 12.4 28.06 (06:10) 15.83 (07:50) 1.6 0 0 0 1.6
20-02-2021 21.2 (16:20) 14 (00:00) 17.6 22.78 (08:10) 15 (08:10) 0 0 0 0 0
19-02-2021 19.2 (15:00) 8.7 (00:00) 14 18.06 (21:10) 9.17 (20:30) 0 0 0 0 0
18-02-2021 19.4 (13:40) 8.8 (00:00) 14.1 16.67 (14:30) 9.17 (14:20) 0 0 0 0 0
17-02-2021 17.7 (14:10) 6.3 (00:00) 12 13.33 (23:50) 5 (16:30) 0 0 0 0 0
16-02-2021 15.6 (14:50) 8.7 (00:00) 12.2 15.28 (06:00) 9.17 (04:30) 0 0 0 0 0
15-02-2021 15.2 (15:20) 8.8 (00:00) 12 18.06 (21:50) 9.72 (21:50) 0 0 0 0 0
14-02-2021 16.4 (14:30) 3.2 (00:00) 9.8 13.06 (20:20) 6.39 (11:30) 0 0 0 0 0
13-02-2021 14.6 (16:40) 5.7 (00:00) 10.2 4.17 (16:50) 2.5 (16:50) 0.2 0.2 0 0 0
12-02-2021 14.8 (00:50) 9.5 (00:00) 12.2 12.22 (11:20) 5.83 (04:50) 15.2 0 3.4 11.6 0.2
11-02-2021 18.2 (15:40) 3.7 (00:00) 11 6.67 (23:50) 3.33 (17:50) 0.2 0.2 0 0 0
10-02-2021 10.8 (16:50) 6 (00:00) 8.4 10.28 (02:10) 5.56 (01:30) 3.4 1 2.2 0.2 0
09-02-2021 11.5 (11:30) 6.3 (00:00) 8.9 13.33 (12:10) 7.22 (12:20) 3.2 0 0 3.2 0
08-02-2021 12.5 (16:10) 6.9 (00:00) 9.7 11.94 (16:40) 5.83 (16:40) 7 0.6 5 1.4 0
07-02-2021 9.9 (16:10) 3.8 (00:00) 6.8 6.67 (17:20) 3.89 (17:20) 2.8 1.2 0 0 1.6
06-02-2021 9.8 (12:10) 5.1 (00:00) 7.5 12.78 (14:00) 5.56 (14:00) 20 0.4 1.6 15.4 2.6
05-02-2021 13.1 (16:30) 8.5 (00:00) 10.8 4.72 (20:00) 3.06 (20:00) 0.6 0 0.6 0 0
04-02-2021 16.6 (15:40) 10.5 (00:00) 13.6 6.11 (05:30) 2.78 (01:00) 0.4 0.2 0.2 0 0
03-02-2021 16 (12:30) 11.3 (00:00) 13.7 18.06 (09:00) 9.17 (07:50) 0.8 0 0.2 0.2 0.4
02-02-2021 18.5 (15:00) 8.7 (00:00) 13.6 10 (23:59) 5.28 (16:50) 0.2 0.2 0 0 0
01-02-2021 13.7 (00:40) 10.4 (00:00) 12 11.94 (05:10) 5 (09:50) 3.4 0.6 0 0 2.8
31-01-2021 14.5 (16:40) 7.2 (00:00) 10.8 14.72 (04:20) 6.94 (04:20) 5.6 3.8 1.4 0.4 0
30-01-2021 16.6 (01:20) 7.2 (00:00) 11.9 13.33 (04:10) 6.67 (04:10) 10.6 0.6 0 9.2 0.8

Gráficas

Temp. máximas Temp. mínimas Temp. medias Precipitaciones Rachas de viento máximas Velocidades máximas media en intervalos de 10 minutos

Datos horarios

Fecha y hora oficial Temperatura (ºC) Velocidad del viento (km/h) Dirección del viento Racha (km/h) Dirección de racha Precipitación (mm) Presión (hPa) Tendencia (hPa) Humedad (%)
2021-02-28 23:00:00 12.2 32 Sudeste 67 Sudeste 0 -- -- 64
2021-02-28 22:00:00 11.4 28 Sudeste 52 Sudeste 0 -- -- 73
2021-02-28 21:00:00 10.2 14 Este 28 Este 0.2 -- -- 87
2021-02-28 20:00:00 9.2 8 Nordeste 27 Norte 0.6 -- -- 93
2021-02-28 19:00:00 9.1 4 Este 12 Nordeste 0.8 -- -- 95
2021-02-28 18:00:00 8.9 3 Sudeste 9 Este 0 -- -- 93
2021-02-28 17:00:00 8.8 2 Oeste 5 Oeste 0.2 -- -- 92
2021-02-28 16:00:00 9.4 2 Este 9 Sudeste 0.2 -- -- 86
2021-02-28 15:00:00 9.3 3 Sudoeste 5 Sudoeste 0 -- -- 87
2021-02-28 14:00:00 8.6 0 Calma 4 Sudeste 0 -- -- 84
2021-02-28 13:00:00 8.5 3 Sudeste 4 Este 0 -- -- 85
2021-02-28 12:00:00 8.2 4 Sudoeste 9 Sudeste 0 -- -- 84
2021-02-28 11:00:00 7.4 3 Sudeste 5 Sudeste 0 -- -- 91
2021-02-28 10:00:00 6.5 0 Calma 4 Noroeste 0 -- -- 92
2021-02-28 09:00:00 6 2 Noroeste 5 Sudeste 0 -- -- 95
2021-02-28 08:00:00 5.7 0 Calma 3 Este 0 -- -- 95
2021-02-28 07:00:00 5.6 0 Calma 7 Este 0 -- -- 94
2021-02-28 06:00:00 5.5 0 Calma 8 Noroeste 0 -- -- 94
2021-02-28 05:00:00 5.4 2 Oeste 6 Sudeste 0 -- -- 93
2021-02-28 04:00:00 6.4 2 Norte 8 Noroeste 0 -- -- 89
2021-02-28 03:00:00 6.2 5 Noroeste 8 Este 0 -- -- 89
2021-02-28 02:00:00 6.9 3 Norte 9 Este 0 -- -- 87
2021-02-28 01:00:00 7 7 Este 8 Este 0 -- -- 86
2021-02-28 00:00:00 7.1 2 Nordeste 5 Oeste 0 -- -- 83
2021-02-27 23:00:00 7 0 Calma 6 Oeste 0 -- -- 82
2021-02-27 22:00:00 7 2 Noroeste 3 Noroeste 0 -- -- 81
2021-02-27 21:00:00 7 0 Calma 8 Nordeste 0 -- -- 78
2021-02-27 20:00:00 7.2 4 Nordeste 14 Noroeste 0 -- -- 77
2021-02-27 19:00:00 7.8 6 Norte 15 Noroeste 0 -- -- 70
2021-02-27 18:00:00 9.5 12 Noroeste 26 Norte 0 -- -- 66
2021-02-27 17:00:00 11.3 8 Noroeste 22 Noroeste 0 -- -- 67
2021-02-27 16:00:00 12.9 8 Noroeste 27 Oeste 0 -- -- 59
2021-02-27 15:00:00 13.3 7 Sudoeste 20 Noroeste 0 -- -- 60
2021-02-27 14:00:00 11.2 12 Noroeste 29 Noroeste 0 -- -- 68
2021-02-27 13:00:00 12.2 6 Oeste 18 Oeste 0 -- -- 68
2021-02-27 12:00:00 11.1 3 Sudeste 14 Noroeste 0 -- -- 73
2021-02-27 11:00:00 11.3 4 Norte 16 Este 0 -- -- 76
2021-02-27 10:00:00 10.2 8 Este 16 Este 0 -- -- 91
2021-02-27 09:00:00 9.5 2 Este 7 Este 0 -- -- 92
2021-02-27 08:00:00 9.3 4 Este 9 Norte 0 -- -- 94
2021-02-27 07:00:00 9.3 0 Calma 5 Este 0 -- -- 93
2021-02-27 06:00:00 9.4 2 Nordeste 5 Noroeste 0 -- -- 92
2021-02-27 05:00:00 9.5 3 Noroeste 4 Noroeste 0 -- -- 92
2021-02-27 04:00:00 9.5 0 Calma 7 Este 0 -- -- 91
2021-02-27 03:00:00 9.5 2 Sudeste 6 Este 0 -- -- 91
2021-02-27 02:00:00 9.5 2 Sudoeste 5 Este 0 -- -- 92
2021-02-27 01:00:00 9.5 3 Nordeste 8 Nordeste 0 -- -- 91
2021-02-27 00:00:00 9.6 2 Oeste 4 Oeste 0 -- -- 92
2021-02-26 23:00:00 9.8 2 Norte 11 Nordeste 0 -- -- 91
2021-02-26 22:00:00 10 4 Noroeste 15 Nordeste 0 -- -- 89
2021-02-26 21:00:00 10 4 Nordeste 15 Norte 0 -- -- 89
2021-02-26 20:00:00 10.2 7 Nordeste 14 Nordeste 0 -- -- 89
2021-02-26 19:00:00 10.4 9 Este 17 Este 0 -- -- 89
2021-02-26 18:00:00 11.2 8 Este 15 Este 0 -- -- 85
2021-02-26 17:00:00 12.1 6 Este 15 Este 0 -- -- 82
2021-02-26 16:00:00 12.7 5 Nordeste 18 Este 0 -- -- 79
2021-02-26 15:00:00 13 9 Este 18 Este 0 -- -- 77
2021-02-26 14:00:00 12.3 12 Este 17 Este 0 -- -- 83
2021-02-26 13:00:00 11.9 8 Este 16 Este 0 -- -- 87
2021-02-26 12:00:00 11.5 4 Este 13 Este 0 -- -- 90
2021-02-26 11:00:00 11.1 4 Este 10 Este 0 -- -- 92
2021-02-26 10:00:00 10.6 6 Este 11 Este 0 -- -- 95
2021-02-26 09:00:00 10.2 2 Nordeste 4 Este 0 -- -- 96
2021-02-26 08:00:00 10.1 2 Oeste 5 Este 0 -- -- 96
2021-02-26 07:00:00 10.1 3 Noroeste 5 Nordeste 0 -- -- 95
2021-02-26 06:00:00 10.1 2 Norte 6 Nordeste 0 -- -- 95
2021-02-26 05:00:00 10.2 0 Calma 3 Noroeste 0 -- -- 94
2021-02-26 04:00:00 10.3 0 Calma 9 Este 0 -- -- 92
2021-02-26 03:00:00 10.5 4 Nordeste 12 Este 0 -- -- 91
2021-02-26 02:00:00 10.8 4 Nordeste 5 Este 0 -- -- 90
2021-02-26 01:00:00 10.9 0 Calma 4 Este 0 -- -- 90
2021-02-26 00:00:00 11 0 Calma 8 Noroeste 0 -- -- 89
2021-02-25 23:00:00 11 2 Este 5 Este 0 -- -- 89
2021-02-25 22:00:00 11.1 0 Calma 13 Este 0 -- -- 88
2021-02-25 21:00:00 11.2 8 Este 14 Nordeste 0 -- -- 88
2021-02-25 20:00:00 11.3 6 Este 18 Este 0 -- -- 88
2021-02-25 19:00:00 11.4 15 Este 27 Este 0 -- -- 88
2021-02-25 18:00:00 12.7 17 Este 24 Este 0 -- -- 82
2021-02-25 17:00:00 15.5 0 Calma 7 Este 0 -- -- 57
2021-02-25 16:00:00 15.4 3 Sudeste 9 Este 0 -- -- 62
2021-02-25 15:00:00 15.6 3 Sur 13 Sur 0 -- -- 58
2021-02-25 14:00:00 15.4 8 Sur 19 Sudoeste 0 -- -- 62
2021-02-25 13:00:00 14.4 6 Sudoeste 23 Sudeste 0 -- -- 60
2021-02-25 12:00:00 13.5 9 Sur 35 Este 0 -- -- 64
2021-02-25 11:00:00 12.4 15 Sur 43 Este 0 -- -- 66
2021-02-25 10:00:00 11.8 4 Oeste 41 Este 0 -- -- 66
2021-02-25 09:00:00 11.3 12 Oeste 24 Oeste 0 -- -- 65
2021-02-25 08:00:00 11.1 8 Oeste 29 Este 0 -- -- 66
2021-02-25 07:00:00 11.8 3 Norte 31 Sudeste 0 -- -- 62
2021-02-25 06:00:00 11.7 8 Sudoeste 23 Oeste 0 -- -- 65
2021-02-25 05:00:00 12.2 9 Nordeste 34 Sudoeste 0 -- -- 63
2021-02-25 04:00:00 12.9 12 Sur 44 Sudeste 0 -- -- 65
2021-02-25 03:00:00 13.7 17 Sur 41 Sur 0 -- -- 68
2021-02-25 02:00:00 13.9 8 Sudoeste 21 Oeste 0 -- -- 71
2021-02-25 01:00:00 14 8 Oeste 43 Sudeste 0 -- -- 69
2021-02-25 00:00:00 14.2 5 Sur 30 Sudeste 0 -- -- 69
2021-02-24 23:00:00 14.6 9 Sudoeste 21 Sudoeste 0 -- -- 66
2021-02-24 22:00:00 15.1 8 Sur 32 Sudeste 0 -- -- 67
2021-02-24 21:00:00 15.2 9 Sudeste 31 Sudeste 0 -- -- 67
2021-02-24 20:00:00 15.2 8 Sudeste 29 Sudeste 0 -- -- 67
2021-02-24 19:00:00 15.9 13 Sur 35 Sur 0 -- -- 64
2021-02-24 18:00:00 17 14 Sur 35 Sudeste 0 -- -- 59
2021-02-24 17:00:00 17.4 19 Sudeste 36 Sudeste 0 -- -- 60
2021-02-24 16:00:00 17.8 17 Sur 42 Sur 0 -- -- 58
2021-02-24 15:00:00 18 16 Sur 39 Sudeste 0 -- -- 56
2021-02-24 14:00:00 17.5 15 Sudoeste 37 Sudoeste 0 -- -- 58
2021-02-24 13:00:00 16.8 16 Sur 39 Sudoeste 0 -- -- 61
2021-02-24 12:00:00 15.4 18 Sudoeste 37 Sudeste 0 -- -- 64
2021-02-24 11:00:00 15.7 12 Sudeste 39 Sur 0 -- -- 64
2021-02-24 10:00:00 14.4 13 Sudeste 44 Sudeste 0 -- -- 69
2021-02-24 09:00:00 13.4 13 Sur 48 Sudeste 0 -- -- 67
2021-02-24 08:00:00 13.1 22 Sudeste 59 Sudeste 0 -- -- 66
2021-02-24 07:00:00 13.1 21 Sur 43 Este 0 -- -- 65
2021-02-24 06:00:00 13 12 Sudoeste 34 Oeste 0 -- -- 67
2021-02-24 05:00:00 13 12 Sudoeste 40 Sur 0 -- -- 68
2021-02-24 04:00:00 13.3 13 Sudoeste 55 Sudeste 0 -- -- 68
2021-02-24 03:00:00 13.6 33 Sudeste 63 Sudeste 0 -- -- 67
2021-02-24 02:00:00 13.7 26 Sudeste 51 Este 0 -- -- 67
2021-02-24 01:00:00 13.5 18 Sudeste 54 Sur 0 -- -- 67
2021-02-24 00:00:00 13.6 17 Sur 38 Sudeste 0 -- -- 66
2021-02-23 23:00:00 13.6 9 Sur 42 Sudeste 0 -- -- 65
2021-02-23 22:00:00 13.6 9 Sudoeste 29 Sur 0 -- -- 66
2021-02-23 21:00:00 13.9 12 Sur 39 Sudeste 0 -- -- 65
2021-02-23 20:00:00 13.8 13 Sur 32 Sur 0 -- -- 65
2021-02-23 19:00:00 14.3 12 Sur 47 Este 0 -- -- 60
2021-02-23 18:00:00 15.4 13 Sudoeste 51 Sur 0 -- -- 58
2021-02-23 17:00:00 15.8 21 Sur 50 Sudeste 0 -- -- 55
2021-02-23 16:00:00 16.5 21 Sur 40 Sur 0 -- -- 49
2021-02-23 15:00:00 16.5 15 Sur 65 Sudeste 0 -- -- 50
2021-02-23 14:00:00 15.6 17 Sur 59 Sudeste 0 -- -- 58
2021-02-23 13:00:00 14.1 29 Sudeste 53 Sudeste 0 -- -- 62
2021-02-23 12:00:00 13.4 20 Sur 55 Sudeste 0 -- -- 64
2021-02-23 11:00:00 12.6 10 Sudoeste 27 Sudeste 0 -- -- 67
2021-02-23 10:00:00 12.1 8 Sur 30 Sudoeste 0 -- -- 67
2021-02-23 09:00:00 10.4 12 Sudoeste 25 Sudoeste 0 -- -- 73
2021-02-23 08:00:00 10.1 11 Sudeste 28 Este 0 -- -- 73
2021-02-23 07:00:00 9.7 5 Sudoeste 34 Sudoeste 0 -- -- 76
2021-02-23 06:00:00 9.4 8 Oeste 25 Oeste 0 -- -- 86
2021-02-23 05:00:00 9.3 10 Sudoeste 29 Sur 0 -- -- 88
2021-02-23 04:00:00 8.7 7 Sudoeste 25 Sur 0 -- -- 91
2021-02-23 03:00:00 7.8 11 Noroeste 21 Oeste 0 -- -- 100
2021-02-23 02:00:00 5.5 4 Oeste 9 Este 0 -- -- 100
2021-02-23 01:00:00 5.6 5 Oeste 8 Este 0.2 -- -- 100
2021-02-23 00:00:00 6.4 5 Este 7 Este 0 -- -- 100
2021-02-22 23:00:00 7.1 2 Noroeste 6 Oeste 0 -- -- 100
2021-02-22 22:00:00 7.6 6 Noroeste 9 Noroeste 0 -- -- 100
2021-02-22 21:00:00 7.9 3 Este 8 Sudeste 0 -- -- 100
2021-02-22 20:00:00 7.8 4 Noroeste 8 Noroeste 0 -- -- 100
2021-02-22 19:00:00 8 4 Nordeste 10 Este 0 -- -- 100
2021-02-22 18:00:00 8.2 3 Nordeste 5 Este 0 -- -- 100
2021-02-22 17:00:00 8.3 3 Este 10 Sudeste 0 -- -- 99
2021-02-22 16:00:00 8.4 2 Sudeste 8 Sudeste 0 -- -- 100
2021-02-22 15:00:00 8.3 3 Este 7 Sudeste 0 -- -- 100
2021-02-22 14:00:00 8 4 Sudeste 8 Sudeste 0.4 -- -- 100
2021-02-22 13:00:00 7.1 4 Noroeste 6 Noroeste 0.6 -- -- 100
2021-02-22 12:00:00 6.8 0 Calma 5 Oeste 1 -- -- 100
2021-02-22 11:00:00 6.2 0 Calma 5 Oeste 1.8 -- -- 100
2021-02-22 10:00:00 5.7 2 Oeste 10 Noroeste 2.2 -- -- 100
2021-02-22 09:00:00 5.3 0 Calma 6 Sudeste 2.8 -- -- 100
2021-02-22 08:00:00 5.4 3 Noroeste 9 Sudeste 3.2 -- -- 100
2021-02-22 07:00:00 5.4 4 Sudeste 9 Sur 9.6 -- -- 100
2021-02-22 06:00:00 5.6 3 Sur 8 Oeste 2.4 -- -- 100
2021-02-22 05:00:00 5.6 3 Sudoeste 10 Sur 4.2 -- -- 100
2021-02-22 04:00:00 5.8 5 Oeste 10 Sudoeste 3.6 -- -- 100
2021-02-22 03:00:00 6.2 5 Sudoeste 16 Oeste 3.4 -- -- 100
2021-02-22 02:00:00 6.6 4 Sur 12 Sudeste 5.8 -- -- 99
2021-02-22 01:00:00 7.7 7 Este 19 Este 7.8 -- -- 98
2021-02-22 00:00:00 9.2 8 Nordeste 30 Este 1.6 -- -- 93
2021-02-21 23:00:00 10.7 19 Este 33 Este 0 -- -- 84
2021-02-21 22:00:00 14.3 9 Nordeste 28 Sudeste 0 -- -- 63
2021-02-21 21:00:00 14.5 14 Sudeste 41 Sudeste 0 -- -- 62
2021-02-21 20:00:00 14.4 11 Sudeste 46 Sudeste 0 -- -- 62
2021-02-21 19:00:00 14.2 8 Sudoeste 60 Sudeste 0 -- -- 64
2021-02-21 18:00:00 13.8 23 Este 50 Sudeste 0 -- -- 65
2021-02-21 17:00:00 13.7 18 Sudeste 56 Sudeste 0 -- -- 65
2021-02-21 16:00:00 13.7 23 Sudeste 73 Sudeste 0 -- -- 64
2021-02-21 15:00:00 14.1 34 Sudeste 78 Sudeste 0 -- -- 60
2021-02-21 14:00:00 14.5 40 Sudeste 69 Sudeste 0 -- -- 53
2021-02-21 13:00:00 15.4 28 Sudeste 55 Sur 0 -- -- 49
2021-02-21 12:00:00 15 31 Sudeste 84 Sudeste 0 -- -- 45
2021-02-21 11:00:00 14.6 43 Sudeste 79 Sudeste 0 -- -- 44
2021-02-21 10:00:00 14.2 30 Sudeste 57 Sudeste 0 -- -- 44
2021-02-21 09:00:00 13.2 24 Sudeste 86 Sudeste 0 -- -- 47
2021-02-21 08:00:00 13.3 42 Sudeste 98 Sudeste 0 -- -- 47
2021-02-21 07:00:00 13.1 40 Sudeste 101 Sudeste 0 -- -- 49
2021-02-21 06:00:00 12.9 56 Sudeste 90 Sudeste 0 -- -- 49
2021-02-21 05:00:00 12.8 16 Este 74 Sudeste 0 -- -- 49
2021-02-21 04:00:00 13.2 14 Sudeste 70 Este 0 -- -- 48
2021-02-21 03:00:00 13.6 50 Este 83 Sudeste 0 -- -- 48
2021-02-21 02:00:00 14.1 12 Este 62 Sudeste 0 -- -- 47
2021-02-21 01:00:00 14.4 22 Este 45 Nordeste 0 -- -- 49
2021-02-21 00:00:00 15.1 24 Sudeste 59 Sudeste 0 -- -- 49
2021-02-20 23:00:00 15.9 27 Sudeste 52 Sur 0 -- -- 49
2021-02-20 22:00:00 16.4 23 Sudeste 49 Sudeste 0 -- -- 46
2021-02-20 21:00:00 16.8 9 Sur 48 Sudeste 0 -- -- 44
2021-02-20 20:00:00 17.4 22 Sur 51 Sudeste 0 -- -- 45
2021-02-20 19:00:00 17.8 18 Sur 53 Sudeste 0 -- -- 46
2021-02-20 18:00:00 19.4 17 Sur 47 Sudoeste 0 -- -- 39
2021-02-20 17:00:00 20.4 20 Sudoeste 46 Sudeste 0 -- -- 34
2021-02-20 16:00:00 20.2 23 Sur 60 Sur 0 -- -- 33
2021-02-20 15:00:00 20.4 16 Sur 53 Sudeste 0 -- -- 37
2021-02-20 14:00:00 20.1 30 Sur 66 Sudeste 0 -- -- 36
2021-02-20 13:00:00 19.7 26 Sur 61 Sudeste 0 -- -- 34
2021-02-20 12:00:00 18.5 18 Sur 60 Sudeste 0 -- -- 37
2021-02-20 11:00:00 17.1 28 Sur 51 Sudeste 0 -- -- 41
2021-02-20 10:00:00 16.1 23 Sur 59 Sur 0 -- -- 42
2021-02-20 09:00:00 16.1 32 Sur 82 Sudeste 0 -- -- 40
2021-02-20 08:00:00 15.5 46 Sudeste 80 Sudeste 0 -- -- 42
2021-02-20 07:00:00 14.6 20 Sur 46 Sur 0 -- -- 44
2021-02-20 06:00:00 14 8 Norte 30 Este 0 -- -- 47
2021-02-20 05:00:00 14.5 6 Norte 30 Sudeste 0 -- -- 45
2021-02-20 04:00:00 14.9 13 Sur 42 Sudeste 0 -- -- 45
2021-02-20 03:00:00 15.4 20 Sur 44 Sudeste 0 -- -- 45
2021-02-20 02:00:00 16.1 26 Sudeste 53 Sudeste 0 -- -- 43
2021-02-20 01:00:00 15.9 15 Sur 47 Sudeste 0 -- -- 44
2021-02-20 00:00:00 16.2 18 Sudeste 60 Sudeste 0 -- -- 43
2021-02-19 23:00:00 16.2 21 Sudeste 52 Sudeste 0 -- -- 43
2021-02-19 22:00:00 16.7 22 Sudeste 65 Sudeste 0 -- -- 44
2021-02-19 21:00:00 17.3 26 Sudeste 54 Sudeste 0 -- -- 43
2021-02-19 20:00:00 17.4 28 Sudeste 53 Sur 0 -- -- 44
2021-02-19 19:00:00 17.9 23 Sudeste 48 Sudeste 0 -- -- 43
2021-02-19 18:00:00 18.4 26 Sudeste 49 Sudeste 0 -- -- 42
2021-02-19 17:00:00 18.8 20 Sudeste 46 Sudeste 0 -- -- 45
2021-02-19 16:00:00 18.8 21 Sudeste 39 Sudeste 0 -- -- 44
2021-02-19 15:00:00 19.2 13 Sur 43 Sudeste 0 -- -- 43
2021-02-19 14:00:00 18.5 18 Sudeste 40 Sudeste 0 -- -- 48
2021-02-19 13:00:00 17.8 17 Sur 40 Sudeste 0 -- -- 49
2021-02-19 12:00:00 16.5 21 Sur 48 Sudeste 0 -- -- 50
2021-02-19 11:00:00 15.6 20 Sur 33 Sudeste 0 -- -- 50
2021-02-19 10:00:00 14.3 14 Sur 33 Sudeste 0 -- -- 55
2021-02-19 09:00:00 12.8 13 Sur 26 Sudeste 0 -- -- 57
2021-02-19 08:00:00 12.8 14 Sur 27 Sur 0 -- -- 55
2021-02-19 07:00:00 13.2 12 Sur 35 Sudeste 0 -- -- 54
2021-02-19 06:00:00 14.3 19 Sur 31 Sur 0 -- -- 51
2021-02-19 05:00:00 14.5 18 Sur 42 Sur 0 -- -- 54
2021-02-19 04:00:00 13.8 7 Sudoeste 17 Sur 0 -- -- 60
2021-02-19 03:00:00 13.1 9 Oeste 20 Sudoeste 0 -- -- 68
2021-02-19 02:00:00 9.9 5 Oeste 9 Noroeste 0 -- -- 89
2021-02-19 01:00:00 8.8 2 Noroeste 8 Oeste 0 -- -- 95
2021-02-19 00:00:00 8.9 2 Sudoeste 8 Este 0 -- -- 93
2021-02-18 23:00:00 9 4 Este 8 Oeste 0 -- -- 92
2021-02-18 22:00:00 9.3 4 Nordeste 9 Este 0 -- -- 91
2021-02-18 21:00:00 9.5 5 Nordeste 14 Este 0 -- -- 90
2021-02-18 20:00:00 10 8 Este 21 Nordeste 0 -- -- 89
2021-02-18 19:00:00 10.2 13 Este 30 Este 0 -- -- 88
2021-02-18 18:00:00 10.9 13 Este 35 Este 0 -- -- 86
2021-02-18 17:00:00 13.6 14 Nordeste 29 Nordeste 0 -- -- 71
2021-02-18 16:00:00 17.6 18 Oeste 58 Oeste 0 -- -- 46
2021-02-18 15:00:00 17.4 33 Oeste 60 Oeste 0 -- -- 42
2021-02-18 14:00:00 19 23 Oeste 55 Oeste 0 -- -- 34
2021-02-18 13:00:00 18.9 14 Sur 48 Oeste 0 -- -- 44
2021-02-18 12:00:00 16.9 14 Sudeste 28 Sur 0 -- -- 46
2021-02-18 11:00:00 15.8 9 Sur 24 Noroeste 0 -- -- 51
2021-02-18 10:00:00 13.8 11 Oeste 23 Oeste 0 -- -- 54
2021-02-18 09:00:00 13.5 12 Oeste 22 Oeste 0 -- -- 56
2021-02-18 08:00:00 13.4 16 Oeste 28 Noroeste 0 -- -- 58
2021-02-18 07:00:00 13.4 11 Oeste 26 Oeste 0 -- -- 60
2021-02-18 06:00:00 13.6 7 Noroeste 30 Noroeste 0 -- -- 62
2021-02-18 05:00:00 13.6 14 Sudoeste 35 Sudoeste 0 -- -- 64
2021-02-18 04:00:00 13.7 8 Sudoeste 29 Sudoeste 0 -- -- 62
2021-02-18 03:00:00 14.3 14 Oeste 47 Oeste 0 -- -- 60
2021-02-18 02:00:00 14.5 15 Oeste 37 Sur 0 -- -- 62
2021-02-18 01:00:00 14.7 10 Sur 35 Sudoeste 0 -- -- 64
2021-02-18 00:00:00 14.9 10 Sudoeste 48 Sur 0 -- -- 63
2021-02-17 23:00:00 14.8 9 Sur 35 Sudeste 0 -- -- 64
2021-02-17 22:00:00 14.7 11 Sur 30 Sudeste 0 -- -- 65
2021-02-17 21:00:00 14.9 8 Sur 28 Este 0 -- -- 64
2021-02-17 20:00:00 15.2 5 Oeste 22 Sudoeste 0 -- -- 62
2021-02-17 19:00:00 15.6 13 Sur 27 Sudoeste 0 -- -- 62
2021-02-17 18:00:00 15.5 13 Sur 33 Sur 0 -- -- 65
2021-02-17 17:00:00 15.7 18 Sur 35 Sudeste 0 -- -- 63
2021-02-17 16:00:00 16.3 15 Sur 29 Sudeste 0 -- -- 58
2021-02-17 15:00:00 17.2 16 Sur 37 Sudoeste 0 -- -- 54
2021-02-17 14:00:00 17.6 12 Sudoeste 26 Sudoeste 0 -- -- 53
2021-02-17 13:00:00 16 17 Sur 30 Sur 0 -- -- 59
2021-02-17 12:00:00 14.8 17 Sudeste 25 Sudeste 0 -- -- 69
2021-02-17 11:00:00 14.8 13 Sur 25 Sudeste 0 -- -- 68
2021-02-17 10:00:00 12.7 7 Sudoeste 15 Oeste 0 -- -- 74
2021-02-17 09:00:00 10.9 7 Oeste 17 Oeste 0 -- -- 79
2021-02-17 08:00:00 11.2 6 Oeste 20 Oeste 0 -- -- 77
2021-02-17 07:00:00 10.1 7 Noroeste 10 Noroeste 0 -- -- 83
2021-02-17 06:00:00 7.8 4 Nordeste 8 Norte 0 -- -- 92
2021-02-17 05:00:00 7.5 5 Nordeste 9 Norte 0 -- -- 93
2021-02-17 04:00:00 6.7 5 Oeste 10 Noroeste 0 -- -- 96
2021-02-17 03:00:00 6.9 2 Oeste 8 Este 0 -- -- 96
2021-02-17 02:00:00 7 2 Oeste 6 Oeste 0 -- -- 95
2021-02-17 01:00:00 7.8 4 Sudoeste 6 Oeste 0 -- -- 93
2021-02-17 00:00:00 8.7 0 Calma 6 Noroeste 0 -- -- 89
2021-02-16 23:00:00 9.5 2 Nordeste 7 Noroeste 0 -- -- 85
2021-02-16 22:00:00 10.2 3 Sudeste 7 Este 0 -- -- 84
2021-02-16 21:00:00 10.7 2 Norte 6 Este 0 -- -- 81
2021-02-16 20:00:00 11.1 3 Este 12 Este 0 -- -- 80
2021-02-16 19:00:00 11.4 4 Este 15 Este 0 -- -- 79
2021-02-16 18:00:00 11.7 8 Nordeste 26 Este 0 -- -- 76
2021-02-16 17:00:00 12.3 13 Este 28 Este 0 -- -- 75
2021-02-16 16:00:00 14.7 6 Oeste 18 Sur 0 -- -- 63
2021-02-16 15:00:00 15.3 14 Sudeste 28 Sudeste 0 -- -- 61
2021-02-16 14:00:00 14.9 14 Sur 32 Sudoeste 0 -- -- 60
2021-02-16 13:00:00 14.4 22 Sur 51 Sur 0 -- -- 63
2021-02-16 12:00:00 13 28 Sur 47 Sur 0 -- -- 63
2021-02-16 11:00:00 11.7 19 Sudoeste 51 Oeste 0 -- -- 69
2021-02-16 10:00:00 11.5 25 Oeste 52 Oeste 0 -- -- 67
2021-02-16 09:00:00 10.8 21 Oeste 51 Sudoeste 0 -- -- 71
2021-02-16 08:00:00 10.2 12 Sudoeste 49 Sudeste 0 -- -- 73
2021-02-16 07:00:00 10.5 25 Este 45 Sudeste 0 -- -- 73
2021-02-16 06:00:00 10.7 27 Sudeste 55 Este 0 -- -- 72
2021-02-16 05:00:00 10.8 11 Sudoeste 53 Sur 0 -- -- 70
2021-02-16 04:00:00 11.3 12 Sur 42 Sur 0 -- -- 70
2021-02-16 03:00:00 11.9 10 Oeste 27 Sudoeste 0 -- -- 68
2021-02-16 02:00:00 12.1 9 Oeste 41 Sudeste 0 -- -- 67
2021-02-16 01:00:00 12.2 14 Sudoeste 35 Sudeste 0 -- -- 68
2021-02-16 00:00:00 11.8 14 Sudoeste 40 Sur 0 -- -- 70
2021-02-15 23:00:00 11.3 9 Sudoeste 50 Sudeste 0 -- -- 72
2021-02-15 22:00:00 11.6 24 Sudeste 65 Sudeste 0 -- -- 71
2021-02-15 21:00:00 11.9 14 Sur 37 Sudeste 0 -- -- 67
2021-02-15 20:00:00 11.8 9 Sur 24 Sur 0 -- -- 69
2021-02-15 19:00:00 12 8 Sudoeste 30 Sudoeste 0 -- -- 68
2021-02-15 18:00:00 13.1 9 Oeste 29 Sudoeste 0 -- -- 64
2021-02-15 17:00:00 14.2 17 Oeste 43 Oeste 0 -- -- 62
2021-02-15 16:00:00 14.1 23 Oeste 43 Oeste 0 -- -- 63
2021-02-15 15:00:00 14.9 15 Sur 36 Sur 0 -- -- 65
2021-02-15 14:00:00 14.4 17 Sur 41 Sur 0 -- -- 62
2021-02-15 13:00:00 13.5 17 Sur 37 Sudeste 0 -- -- 64
2021-02-15 12:00:00 13.3 14 Sur 28 Sudoeste 0 -- -- 65
2021-02-15 11:00:00 11.8 8 Sudoeste 22 Sudoeste 0 -- -- 67
2021-02-15 10:00:00 10 10 Sudoeste 31 Sudoeste 0 -- -- 74
2021-02-15 09:00:00 9.6 11 Sudoeste 27 Sudeste 0 -- -- 74
2021-02-15 08:00:00 8.9 10 Oeste 32 Oeste 0 -- -- 75
2021-02-15 07:00:00 8.8 16 Oeste 38 Sudoeste 0 -- -- 77
2021-02-15 06:00:00 9.1 18 Oeste 33 Sudoeste 0 -- -- 76
2021-02-15 05:00:00 9.2 13 Oeste 37 Sudoeste 0 -- -- 75
2021-02-15 04:00:00 9.6 18 Oeste 37 Sur 0 -- -- 74
2021-02-15 03:00:00 9.4 13 Oeste 37 Sudoeste 0 -- -- 76
2021-02-15 02:00:00 9.7 15 Oeste 32 Sudoeste 0 -- -- 77
2021-02-15 01:00:00 10 11 Sudoeste 46 Sudeste 0 -- -- 77
2021-02-15 00:00:00 10.5 14 Sudoeste 33 Sudeste 0 -- -- 75
2021-02-14 23:00:00 11.3 19 Sur 37 Sudeste 0 -- -- 72
2021-02-14 22:00:00 11.6 15 Sudeste 31 Este 0 -- -- 71
2021-02-14 21:00:00 12.2 14 Sur 47 Sur 0 -- -- 69
2021-02-14 20:00:00 12.5 15 Sudeste 42 Sudoeste 0 -- -- 69
2021-02-14 19:00:00 12.6 14 Sur 39 Sur 0 -- -- 68
2021-02-14 18:00:00 13.1 8 Sudoeste 29 Sudeste 0 -- -- 68
2021-02-14 17:00:00 14.1 10 Sudoeste 31 Sur 0 -- -- 65
2021-02-14 16:00:00 15.1 11 Sudeste 41 Sudeste 0 -- -- 60
2021-02-14 15:00:00 16.2 18 Sudeste 45 Sudeste 0 -- -- 56
2021-02-14 14:00:00 15.6 12 Sudoeste 38 Sur 0 -- -- 61
2021-02-14 13:00:00 15.2 11 Sur 28 Sur 0 -- -- 65
2021-02-14 12:00:00 13.8 17 Sur 39 Sudeste 0 -- -- 68
2021-02-14 11:00:00 12.5 18 Sur 36 Sudeste 0 -- -- 74
2021-02-14 10:00:00 9.2 10 Oeste 23 Oeste 0 -- -- 85
2021-02-14 09:00:00 3.5 6 Noroeste 10 Noroeste 0 -- -- 100
2021-02-14 08:00:00 3.3 3 Oeste 5 Oeste 0 -- -- 100
2021-02-14 07:00:00 3.9 0 Calma 5 Este 0 -- -- 100
2021-02-14 06:00:00 4 0 Calma 6 Noroeste 0 -- -- 100
2021-02-14 05:00:00 4.2 4 Oeste 5 Noroeste 0 -- -- 100
2021-02-14 04:00:00 4.5 0 Calma 4 Noroeste 0 -- -- 100
2021-02-14 03:00:00 4.5 3 Sudoeste 5 Oeste 0 -- -- 100
2021-02-14 02:00:00 4.9 2 Oeste 4 Noroeste 0 -- -- 100
2021-02-14 01:00:00 5.7 0 Calma 5 Noroeste 0 -- -- 99
2021-02-14 00:00:00 6.3 0 Calma 5 Oeste 0 -- -- 99
2021-02-13 23:00:00 6.7 4 Sudoeste 6 Oeste 0 -- -- 98
2021-02-13 22:00:00 7.6 4 Oeste 6 Noroeste 0 -- -- 95
2021-02-13 21:00:00 8.4 0 Calma 9 Oeste 0 -- -- 91
2021-02-13 20:00:00 9.6 3 Sudoeste 6 Sudoeste 0 -- -- 85
2021-02-13 19:00:00 11.3 4 Sudeste 13 Nordeste 0 -- -- 81
2021-02-13 18:00:00 12.8 6 Nordeste 10 Norte 0 -- -- 72
2021-02-13 17:00:00 14.1 9 Este 15 Sudeste 0 -- -- 70
2021-02-13 16:00:00 13.2 6 Sudeste 9 Este 0 -- -- 76
2021-02-13 15:00:00 12.8 3 Este 5 Este 0 -- -- 80
2021-02-13 14:00:00 12.4 3 Sudeste 7 Sudeste 0 -- -- 79
2021-02-13 13:00:00 11.2 3 Sudeste 10 Este 0 -- -- 85
2021-02-13 08:00:00 -- -- -- -- -- -- -- -- --
2021-02-13 07:00:00 6 2 Oeste 5 Oeste 0 -- -- 100
2021-02-13 06:00:00 6.5 2 Nordeste 9 Oeste 0 -- -- 100
2021-02-13 05:00:00 7.1 3 Oeste 6 Noroeste 0.2 -- -- 100
2021-02-13 04:00:00 7.8 3 Noroeste 9 Noroeste 0 -- -- 99
2021-02-13 03:00:00 8.4 3 Nordeste 5 Noroeste 0 -- -- 100
2021-02-13 02:00:00 9.1 0 Calma 6 Norte 0 -- -- 98
2021-02-13 01:00:00 9.4 0 Calma 5 Este 0 -- -- 98
2021-02-13 00:00:00 9.5 4 Este 8 Sur 0 -- -- 97
2021-02-12 23:00:00 9.7 5 Sur 14 Sudeste 0 -- -- 95
2021-02-12 22:00:00 9.5 5 Sudoeste 44 Noroeste 0 -- -- 96
2021-02-12 21:00:00 9.9 8 Norte 23 Oeste 0 -- -- 93
2021-02-12 20:00:00 9.8 11 Oeste 19 Oeste 0.2 -- -- 99
2021-02-12 19:00:00 10.2 6 Sudoeste 16 Sudoeste 0 -- -- 99
2021-02-12 18:00:00 10.7 3 Sudeste 23 Noroeste 0.6 -- -- 99
2021-02-12 17:00:00 10.5 5 Sudeste 20 Noroeste 5 -- -- 100
2021-02-12 16:00:00 10.8 4 Sudeste 23 Norte 1.6 -- -- 98
2021-02-12 15:00:00 10.9 4 Este 11 Sudoeste 2 -- -- 98
2021-02-12 14:00:00 10.7 6 Sudoeste 10 Sur 1.8 -- -- 97
2021-02-12 13:00:00 10.9 6 Oeste 29 Sudoeste 0.6 -- -- 95
2021-02-12 12:00:00 11.2 11 Oeste 44 Oeste 1.4 -- -- 90
2021-02-12 11:00:00 11.5 9 Sudoeste 17 Oeste 0.8 -- -- 98
2021-02-12 10:00:00 11.4 2 Sudeste 5 Este 0.2 -- -- 98
2021-02-12 09:00:00 11.1 5 Este 18 Noroeste 0.6 -- -- 97
2021-02-12 08:00:00 11.9 10 Noroeste 26 Sudoeste 0.4 -- -- 90
2021-02-12 07:00:00 13.8 10 Oeste 27 Sudoeste 0 -- -- 73
2021-02-12 06:00:00 13.7 10 Sudoeste 28 Sudoeste 0 -- -- 75
2021-02-12 05:00:00 14 14 Sudoeste 36 Sudoeste 0 -- -- 76
2021-02-12 04:00:00 14.5 10 Oeste 22 Sudoeste 0 -- -- 69
2021-02-12 03:00:00 14.1 6 Sur 18 Sur 0 -- -- 72
2021-02-12 02:00:00 14.5 9 Oeste 21 Oeste 0 -- -- 70
2021-02-12 01:00:00 14.6 11 Noroeste 26 Sudeste 0 -- -- 68
2021-02-12 00:00:00 14.2 7 Sudoeste 24 Sudeste 0 -- -- 70
2021-02-11 23:00:00 14 6 Oeste 20 Sudoeste 0 -- -- 73
2021-02-11 22:00:00 14.3 6 Sudoeste 19 Noroeste 0 -- -- 71
2021-02-11 21:00:00 14.9 6 Sudoeste 14 Sudoeste 0 -- -- 68
2021-02-11 20:00:00 15.4 5 Sur 13 Sudeste 0 -- -- 66
2021-02-11 19:00:00 15.5 2 Sudeste 23 Oeste 0 -- -- 66
2021-02-11 18:00:00 16.3 9 Oeste 20 Sudoeste 0 -- -- 66
2021-02-11 17:00:00 17.1 9 Sur 17 Oeste 0 -- -- 64
2021-02-11 16:00:00 17.9 7 Sur 18 Oeste 0 -- -- 62
2021-02-11 15:00:00 17.8 11 Sudoeste 19 Sur 0 -- -- 65
2021-02-11 14:00:00 17.4 6 Oeste 15 Oeste 0 -- -- 63
2021-02-11 13:00:00 15.5 5 Sudoeste 10 Sudoeste 0 -- -- 71
2021-02-11 12:00:00 12.6 4 Oeste 10 Oeste 0 -- -- 80
2021-02-11 11:00:00 9.3 3 Oeste 9 Sudeste 0 -- -- 100
2021-02-11 10:00:00 6 4 Este 12 Noroeste 0 -- -- 100
2021-02-11 09:00:00 4.9 5 Noroeste 11 Oeste 0 -- -- 100
2021-02-11 08:00:00 4.1 4 Noroeste 9 Noroeste 0 -- -- 100
2021-02-11 07:00:00 3.8 3 Oeste 7 Noroeste 0 -- -- 100
2021-02-11 06:00:00 3.7 0 Calma 7 Sudoeste 0 -- -- 100
2021-02-11 05:00:00 4 3 Oeste 8 Este 0.2 -- -- 100
2021-02-11 04:00:00 4.4 2 Oeste 6 Oeste 0 -- -- 100
2021-02-11 03:00:00 4.6 2 Sudoeste 8 Oeste 0 -- -- 100
2021-02-11 02:00:00 4.7 3 Sudoeste 5 Oeste 0 -- -- 99
2021-02-11 01:00:00 5.4 2 Noroeste 6 Sudoeste 0 -- -- 98
2021-02-11 00:00:00 6 4 Oeste 6 Oeste 0 -- -- 97
2021-02-10 23:00:00 6.8 4 Oeste 10 Oeste 0 -- -- 95
2021-02-10 22:00:00 7.9 3 Oeste 5 Oeste 0 -- -- 93
2021-02-10 21:00:00 8.6 3 Oeste 5 Noroeste 0 -- -- 92
2021-02-10 20:00:00 8.8 3 Oeste 6 Sur 0 -- -- 91
2021-02-10 19:00:00 9.4 3 Noroeste 7 Noroeste 0 -- -- 84
2021-02-10 18:00:00 10 0 Calma 8 Sudeste 0 -- -- 80
2021-02-10 17:00:00 10.7 6 Sudeste 11 Sudeste 0 -- -- 80
2021-02-10 16:00:00 9.6 5 Sudoeste 22 Oeste 0.2 -- -- 85
2021-02-10 15:00:00 10.1 6 Sudoeste 15 Oeste 0 -- -- 83
2021-02-10 14:00:00 9.2 5 Sudoeste 13 Oeste 0 -- -- 82
2021-02-10 13:00:00 9.1 8 Oeste 24 Oeste 0 -- -- 81
2021-02-10 12:00:00 9.1 3 Sudoeste 8 Este 0 -- -- 82
2021-02-10 11:00:00 7.9 5 Este 9 Este 0 -- -- 91
2021-02-10 10:00:00 6.7 3 Nordeste 10 Este 0.2 -- -- 99
2021-02-10 09:00:00 6.2 4 Sur 11 Oeste 0 -- -- 99
2021-02-10 08:00:00 6.2 6 Oeste 10 Oeste 0.8 -- -- 98
2021-02-10 07:00:00 6.3 3 Oeste 8 Sudoeste 1.2 -- -- 97
2021-02-10 06:00:00 6.9 5 Oeste 15 Oeste 1 -- -- 92
2021-02-10 05:00:00 8.8 4 Noroeste 9 Nordeste 0 -- -- 69
2021-02-10 04:00:00 8.4 2 Oeste 19 Oeste 0 -- -- 69
2021-02-10 03:00:00 8.7 14 Oeste 37 Oeste 0 -- -- 68
2021-02-10 02:00:00 8.9 15 Oeste 31 Oeste 0 -- -- 67
2021-02-10 01:00:00 8.9 14 Oeste 23 Sur 0 -- -- 70
2021-02-10 00:00:00 9.2 8 Sur 28 Sudoeste 0 -- -- 72
2021-02-09 23:00:00 9.8 11 Oeste 34 Oeste 0 -- -- 67
2021-02-09 22:00:00 9.2 7 Sudoeste 19 Sur 0 -- -- 67
2021-02-09 21:00:00 8.7 8 Sudeste 18 Oeste 0 -- -- 71
2021-02-09 20:00:00 8.5 8 Oeste 23 Oeste 0 -- -- 74
2021-02-09 19:00:00 9 12 Oeste 29 Oeste 0 -- -- 69
2021-02-09 18:00:00 9.8 13 Sudoeste 39 Sudoeste 0 -- -- 67
2021-02-09 17:00:00 10.6 7 Sudoeste 28 Sudoeste 0 -- -- 81
2021-02-09 16:00:00 8.8 5 Sudeste 33 Noroeste 1.8 -- -- 93
2021-02-09 15:00:00 9.3 18 Oeste 28 Oeste 0.8 -- -- 91
2021-02-09 14:00:00 9.8 6 Sudoeste 31 Sudeste 0.6 -- -- 87
2021-02-09 13:00:00 10.6 19 Sur 48 Sur 0 -- -- 73
2021-02-09 12:00:00 11.4 24 Sur 45 Sudeste 0 -- -- 65
2021-02-09 11:00:00 11 17 Sur 33 Sur 0 -- -- 65
2021-02-09 10:00:00 10 14 Sur 32 Sur 0 -- -- 70
2021-02-09 09:00:00 9.4 17 Sur 36 Sur 0 -- -- 75
2021-02-09 08:00:00 8.9 11 Sudoeste 31 Sudoeste 0 -- -- 80
2021-02-09 07:00:00 9.2 18 Sudoeste 34 Sudoeste 0 -- -- 77
2021-02-09 06:00:00 9.3 17 Oeste 31 Oeste 0 -- -- 78
2021-02-09 05:00:00 8.8 9 Oeste 22 Oeste 0 -- -- 80
2021-02-09 04:00:00 8.2 3 Noroeste 11 Sur 0 -- -- 81
2021-02-09 03:00:00 8.3 5 Oeste 12 Oeste 0 -- -- 82
2021-02-09 02:00:00 7.8 4 Oeste 9 Noroeste 0 -- -- 89
2021-02-09 01:00:00 6.7 4 Noroeste 9 Oeste 0 -- -- 94
2021-02-09 00:00:00 7.6 3 Oeste 9 Noroeste 0 -- -- 96
2021-02-08 23:00:00 7.4 3 Sudoeste 8 Noroeste 0 -- -- 98
2021-02-08 22:00:00 7.8 0 Calma 7 Noroeste 0 -- -- 99
2021-02-08 21:00:00 8.1 3 Este 5 Noroeste 0 -- -- 98
2021-02-08 20:00:00 8.1 0 Calma 5 Oeste 0 -- -- 98
2021-02-08 19:00:00 8.4 2 Sudoeste 7 Norte 0 -- -- 96
2021-02-08 18:00:00 9 4 Norte 16 Este 0.2 -- -- 95
2021-02-08 17:00:00 9.3 6 Norte 43 Oeste 1.2 -- -- 90
2021-02-08 16:00:00 12 3 Oeste 10 Este 0 -- -- 78
2021-02-08 15:00:00 11.4 2 Sudeste 5 Este 0 -- -- 87
2021-02-08 14:00:00 10.5 3 Este 10 Sudeste 0 -- -- 89
2021-02-08 13:00:00 10 4 Sudeste 12 Sudeste 0 -- -- 99
2021-02-08 12:00:00 8.3 6 Este 12 Este 1.4 -- -- 100
2021-02-08 11:00:00 8.1 3 Noroeste 15 Sudeste 1.2 -- -- 100
2021-02-08 10:00:00 8.3 3 Este 9 Este 1.6 -- -- 97
2021-02-08 09:00:00 8.9 6 Noroeste 18 Noroeste 0.8 -- -- 92
2021-02-08 08:00:00 9 4 Noroeste 9 Oeste 0 -- -- 84
2021-02-08 07:00:00 8.8 4 Sudeste 9 Sudeste 0 -- -- 84
2021-02-08 06:00:00 8.3 0 Calma 13 Oeste 0.4 -- -- 87
2021-02-08 05:00:00 8.5 5 Sudoeste 17 Noroeste 0.2 -- -- 88
2021-02-08 04:00:00 8.7 14 Oeste 22 Oeste 0 -- -- 86
2021-02-08 03:00:00 8.8 9 Oeste 19 Oeste 0 -- -- 79
2021-02-08 02:00:00 8.1 11 Oeste 18 Oeste 0 -- -- 81
2021-02-08 01:00:00 7.3 9 Oeste 21 Oeste 0 -- -- 85
2021-02-08 00:00:00 7 8 Oeste 16 Oeste 0.2 -- -- 86
2021-02-07 23:00:00 6.7 4 Oeste 9 Noroeste 0.6 -- -- 88
2021-02-07 22:00:00 7 3 Oeste 10 Oeste 0.6 -- -- 88
2021-02-07 21:00:00 7.5 7 Oeste 12 Oeste 0.2 -- -- 80
2021-02-07 20:00:00 7.6 3 Oeste 9 Oeste 0 -- -- 76
2021-02-07 19:00:00 8.1 0 Calma 22 Sudoeste 0 -- -- 74
2021-02-07 18:00:00 8.6 8 Oeste 24 Oeste 0 -- -- 69
2021-02-07 17:00:00 9.5 8 Sudoeste 15 Noroeste 0 -- -- 67
2021-02-07 16:00:00 9.8 6 Oeste 13 Oeste 0 -- -- 72
2021-02-07 15:00:00 9.4 7 Sudeste 13 Sur 0 -- -- 76
2021-02-07 14:00:00 9.1 4 Sur 12 Sudeste 0 -- -- 81
2021-02-07 13:00:00 7.4 3 Sudoeste 8 Sudoeste 0 -- -- 91
2021-02-07 12:00:00 6.5 3 Sudoeste 5 Sur 0 -- -- 99
2021-02-07 11:00:00 5.5 3 Sur 6 Sur 0 -- -- 100
2021-02-07 10:00:00 4.9 2 Sudoeste 6 Oeste 0 -- -- 100
2021-02-07 09:00:00 4.3 2 Sur 5 Noroeste 0 -- -- 100
2021-02-07 08:00:00 4 3 Oeste 5 Sudoeste 0 -- -- 100
2021-02-07 07:00:00 4 0 Calma 7 Sudeste 0 -- -- 100
2021-02-07 06:00:00 3.9 5 Este 8 Este 0.4 -- -- 100
2021-02-07 05:00:00 3.8 0 Calma 5 Este 0 -- -- 100
2021-02-07 04:00:00 4 0 Calma 6 Oeste 0.8 -- -- 100
2021-02-07 03:00:00 4 3 Oeste 8 Este 0 -- -- 100
2021-02-07 02:00:00 4.2 3 Oeste 6 Noroeste 0 -- -- 100
2021-02-07 01:00:00 4.6 2 Norte 8 Noroeste 0 -- -- 99
2021-02-07 00:00:00 5.1 0 Calma 9 Noroeste 0.4 -- -- 97
2021-02-06 23:00:00 5.2 3 Oeste 20 Noroeste 0.4 -- -- 94
2021-02-06 22:00:00 5.9 4 Este 17 Noroeste 0.2 -- -- 95
2021-02-06 21:00:00 6.1 6 Noroeste 18 Norte 0.6 -- -- 98
2021-02-06 20:00:00 6.3 5 Nordeste 12 Este 0.8 -- -- 99
2021-02-06 19:00:00 6.4 8 Este 18 Noroeste 0.2 -- -- 97
2021-02-06 18:00:00 6.5 8 Noroeste 36 Noroeste 1 -- -- 96
2021-02-06 17:00:00 7.3 12 Noroeste 31 Noroeste 1.6 -- -- 95
2021-02-06 16:00:00 8 4 Norte 19 Noroeste 1.8 -- -- 97
2021-02-06 15:00:00 8.4 17 Oeste 42 Noroeste 3 -- -- 95
2021-02-06 14:00:00 8.9 20 Noroeste 46 Noroeste 5.8 -- -- 98
2021-02-06 13:00:00 9.8 2 Sur 5 Sudoeste 2.2 -- -- 100
2021-02-06 12:00:00 9.7 3 Sur 4 Sudeste 0.4 -- -- 100
2021-02-06 11:00:00 9.5 3 Sudoeste 6 Sudoeste 1.2 -- -- 100
2021-02-06 10:00:00 9.4 0 Calma 5 Sudeste 0 -- -- 100
2021-02-06 09:00:00 9.3 2 Noroeste 7 Nordeste 0 -- -- 100
2021-02-06 08:00:00 9.3 3 Sudoeste 6 Oeste 0 -- -- 100
2021-02-06 07:00:00 9.4 0 Calma 5 Norte 0 -- -- 100
2021-02-06 06:00:00 9.3 2 Sur 7 Oeste 0.2 -- -- 100
2021-02-06 05:00:00 9.3 5 Sudoeste 8 Oeste 0.2 -- -- 100
2021-02-06 04:00:00 9.4 4 Oeste 8 Sudeste 0 -- -- 100
2021-02-06 03:00:00 9.4 5 Este 11 Este 0 -- -- 100
2021-02-06 02:00:00 9.5 3 Nordeste 6 Este 0 -- -- 100
2021-02-06 01:00:00 9.5 4 Oeste 9 Nordeste 0 -- -- 100
2021-02-06 00:00:00 9.5 7 Este 10 Este 0 -- -- 100
2021-02-05 23:00:00 9.5 4 Este 13 Este 0 -- -- 100
2021-02-05 22:00:00 9.6 6 Este 14 Sudeste 0 -- -- 100
2021-02-05 21:00:00 9.8 10 Este 15 Este 0 -- -- 99
2021-02-05 20:00:00 10.2 11 Este 17 Este 0 -- -- 97
2021-02-05 19:00:00 10.7 8 Este 12 Este 0 -- -- 96
2021-02-05 18:00:00 11.2 4 Nordeste 14 Este 0 -- -- 95
2021-02-05 17:00:00 12.4 6 Este 10 Este 0 -- -- 90
2021-02-05 16:00:00 12.7 4 Sudeste 6 Este 0 -- -- 87
2021-02-05 15:00:00 12.7 4 Sudeste 10 Sudoeste 0 -- -- 87
2021-02-05 14:00:00 12.1 8 Oeste 15 Oeste 0 -- -- 89
2021-02-05 13:00:00 11.8 4 Sudoeste 11 Este 0 -- -- 91
2021-02-05 12:00:00 11.3 3 Sudeste 6 Sur 0 -- -- 92
2021-02-05 11:00:00 10 2 Sur 5 Este 0 -- -- 99
2021-02-05 10:00:00 9.3 0 Calma 5 Este 0 -- -- 100
2021-02-05 09:00:00 8.7 3 Este 6 Nordeste 0 -- -- 100
2021-02-05 08:00:00 8.6 4 Noroeste 7 Noroeste 0 -- -- 99
2021-02-05 07:00:00 8.5 6 Noroeste 13 Este 0.6 -- -- 99
2021-02-05 06:00:00 8.7 2 Oeste 7 Noroeste 0 -- -- 97
2021-02-05 05:00:00 8.5 5 Noroeste 8 Sur 0 -- -- 97
2021-02-05 04:00:00 8.6 5 Sudeste 8 Sudeste 0 -- -- 95
2021-02-05 03:00:00 9.1 3 Noroeste 6 Noroeste 0 -- -- 94
2021-02-05 02:00:00 9.8 2 Sur 3 Sur 0 -- -- 91
2021-02-05 01:00:00 10.4 5 Este 9 Este 0 -- -- 90
2021-02-05 00:00:00 10.5 3 Sudeste 6 Este 0 -- -- 91
2021-02-04 23:00:00 10.6 5 Este 8 Este 0 -- -- 91
2021-02-04 22:00:00 11.4 0 Calma 10 Este 0 -- -- 89
2021-02-04 21:00:00 12 6 Este 9 Este 0 -- -- 87
2021-02-04 20:00:00 12.8 5 Nordeste 8 Este 0 -- -- 82
2021-02-04 19:00:00 13.3 5 Este 12 Este 0 -- -- 80
2021-02-04 18:00:00 14.4 5 Sudeste 14 Este 0 -- -- 77
2021-02-04 17:00:00 15.6 3 Este 13 Este 0 -- -- 72
2021-02-04 16:00:00 16.5 6 Este 11 Este 0 -- -- 71
2021-02-04 15:00:00 15.7 3 Este 9 Este 0 -- -- 73
2021-02-04 14:00:00 14.7 6 Oeste 9 Noroeste 0 -- -- 75
2021-02-04 13:00:00 13.2 3 Norte 10 Este 0 -- -- 83
2021-02-04 12:00:00 13.1 4 Nordeste 10 Noroeste 0 -- -- 85
2021-02-04 11:00:00 12.9 3 Noroeste 13 Noroeste 0.2 -- -- 82
2021-02-04 10:00:00 12.8 5 Noroeste 10 Noroeste 0 -- -- 80
2021-02-04 09:00:00 11 3 Noroeste 8 Noroeste 0 -- -- 92
2021-02-04 08:00:00 11 3 Sudoeste 8 Noroeste 0 -- -- 91
2021-02-04 07:00:00 11.6 4 Oeste 10 Oeste 0 -- -- 87
2021-02-04 06:00:00 11.5 4 Sudoeste 22 Oeste 0 -- -- 89
2021-02-04 05:00:00 12.9 8 Oeste 13 Oeste 0 -- -- 77
2021-02-04 04:00:00 12.9 4 Sudoeste 11 Sudoeste 0 -- -- 78
2021-02-04 03:00:00 12.3 6 Oeste 13 Noroeste 0 -- -- 83
2021-02-04 02:00:00 12.3 7 Oeste 13 Oeste 0.2 -- -- 83
2021-02-04 01:00:00 11.6 10 Oeste 18 Oeste 0 -- -- 87
2021-02-04 00:00:00 11.9 8 Oeste 19 Oeste 0.2 -- -- 81
2021-02-03 23:00:00 12.1 10 Oeste 23 Oeste 0.2 -- -- 81
2021-02-03 22:00:00 13.2 5 Sudoeste 19 Oeste 0 -- -- 68
2021-02-03 21:00:00 13.4 6 Sudoeste 14 Sur 0 -- -- 69
2021-02-03 20:00:00 13.6 8 Sur 16 Sudoeste 0 -- -- 70
2021-02-03 19:00:00 14 6 Sur 15 Sudeste 0 -- -- 68
2021-02-03 18:00:00 14.6 10 Sudeste 19 Sudeste 0 -- -- 64
2021-02-03 17:00:00 15.4 5 Sudoeste 15 Sur 0 -- -- 62
2021-02-03 16:00:00 15.7 7 Oeste 22 Sudoeste 0.2 -- -- 60
2021-02-03 15:00:00 15.9 4 Sudoeste 28 Oeste 0 -- -- 66
2021-02-03 14:00:00 15.7 13 Oeste 32 Oeste 0 -- -- 59
2021-02-03 13:00:00 15.6 17 Oeste 34 Noroeste 0 -- -- 60
2021-02-03 12:00:00 15.8 16 Sudoeste 36 Sudoeste 0.2 -- -- 60
2021-02-03 11:00:00 15.5 17 Sudoeste 48 Oeste 0 -- -- 62
2021-02-03 10:00:00 15.4 26 Oeste 60 Oeste 0 -- -- 63
2021-02-03 09:00:00 15.5 32 Sudoeste 65 Oeste 0 -- -- 62
2021-02-03 08:00:00 15.6 27 Oeste 63 Oeste 0 -- -- 63
2021-02-03 07:00:00 15.2 22 Oeste 42 Oeste 0 -- -- 64
2021-02-03 06:00:00 14.2 11 Sur 20 Sudoeste 0 -- -- 64
2021-02-03 05:00:00 14 10 Sudoeste 23 Oeste 0 -- -- 65
2021-02-03 04:00:00 13.9 9 Sudoeste 36 Oeste 0 -- -- 66
2021-02-03 03:00:00 13.4 19 Oeste 36 Oeste 0 -- -- 69
2021-02-03 02:00:00 13.8 17 Sur 37 Sur 0 -- -- 66
2021-02-03 01:00:00 14.3 20 Sur 38 Sur 0 -- -- 65
2021-02-03 00:00:00 14.5 19 Sur 36 Sur 0 -- -- 64
2021-02-02 23:00:00 14.7 14 Sudoeste 28 Sur 0 -- -- 64
2021-02-02 22:00:00 15.3 16 Sudoeste 33 Sudoeste 0 -- -- 60
2021-02-02 21:00:00 15.3 16 Sudoeste 29 Sudoeste 0 -- -- 61
2021-02-02 20:00:00 15 6 Sudeste 28 Sudeste 0 -- -- 63
2021-02-02 19:00:00 15 18 Sur 32 Sudoeste 0 -- -- 64
2021-02-02 18:00:00 14.6 10 Oeste 22 Oeste 0 -- -- 68
2021-02-02 17:00:00 14.8 12 Oeste 31 Oeste 0 -- -- 69
2021-02-02 16:00:00 16.8 11 Oeste 33 Sudoeste 0 -- -- 57
2021-02-02 15:00:00 18.5 12 Sudoeste 30 Sur 0 -- -- 56
2021-02-02 14:00:00 18 10 Sudoeste 31 Sudoeste 0 -- -- 59
2021-02-02 13:00:00 17.4 4 Sudoeste 18 Sudoeste 0 -- -- 62
2021-02-02 12:00:00 15.8 8 Oeste 22 Sur 0 -- -- 66
2021-02-02 11:00:00 14.3 9 Sudoeste 22 Sudoeste 0 -- -- 78
2021-02-02 10:00:00 13.5 8 Oeste 15 Sudoeste 0 -- -- 79
2021-02-02 09:00:00 12.5 8 Oeste 18 Oeste 0 -- -- 84
2021-02-02 08:00:00 12.3 9 Noroeste 16 Oeste 0 -- -- 84
2021-02-02 07:00:00 10.3 4 Este 10 Este 0 -- -- 93
2021-02-02 06:00:00 11.4 5 Noroeste 12 Noroeste 0 -- -- 90
2021-02-02 05:00:00 10.1 4 Nordeste 9 Nordeste 0 -- -- 98
2021-02-02 04:00:00 8.9 3 Sudeste 8 Noroeste 0 -- -- 100
2021-02-02 03:00:00 8.8 3 Noroeste 8 Noroeste 0.2 -- -- 100
2021-02-02 02:00:00 9.2 5 Noroeste 9 Este 0 -- -- 100
2021-02-02 01:00:00 10.1 2 Sur 7 Sudoeste 0 -- -- 100
2021-02-02 00:00:00 10.4 3 Sudeste 5 Este 0 -- -- 100
2021-02-01 23:00:00 10.7 0 Calma 6 Este 0 -- -- 100
2021-02-01 22:00:00 10.7 5 Este 6 Este 0 -- -- 99
2021-02-01 21:00:00 10.8 2 Noroeste 6 Este 0.6 -- -- 99
2021-02-01 20:00:00 11.2 0 Calma 6 Noroeste 2.2 -- -- 95
2021-02-01 19:00:00 12.2 4 Oeste 10 Norte 0 -- -- 86
2021-02-01 18:00:00 12.8 0 Calma 21 Este 0 -- -- 83
2021-02-01 17:00:00 13.3 13 Este 21 Nordeste 0 -- -- 81
2021-02-01 16:00:00 13.2 4 Nordeste 10 Este 0 -- -- 80
2021-02-01 15:00:00 13.4 4 Sudoeste 22 Oeste 0 -- -- 77
2021-02-01 14:00:00 13.6 13 Oeste 34 Oeste 0 -- -- 75
2021-02-01 13:00:00 13.2 5 Sudeste 19 Sudeste 0 -- -- 74
2021-02-01 12:00:00 13.1 8 Este 14 Este 0 -- -- 72
2021-02-01 11:00:00 12.7 7 Sudoeste 24 Oeste 0 -- -- 74
2021-02-01 10:00:00 12.2 9 Oeste 43 Oeste 0 -- -- 74
2021-02-01 09:00:00 12.2 11 Oeste 40 Oeste 0 -- -- 72
2021-02-01 08:00:00 12.3 10 Este 25 Noroeste 0 -- -- 67
2021-02-01 07:00:00 12.7 9 Noroeste 40 Oeste 0 -- -- 66
2021-02-01 06:00:00 12.3 7 Sudoeste 43 Sudoeste 0 -- -- 71
2021-02-01 05:00:00 12 12 Oeste 39 Oeste 0 -- -- 75
2021-02-01 04:00:00 11.8 8 Sur 32 Oeste 0.2 -- -- 76
2021-02-01 03:00:00 10.9 7 Este 19 Sudoeste 0 -- -- 88
2021-02-01 02:00:00 11.2 6 Sudoeste 26 Oeste 0.4 -- -- 89
2021-02-01 01:00:00 13.4 11 Norte 35 Sudoeste 0 -- -- 69
2021-02-01 00:00:00 13.1 8 Sudoeste 20 Oeste 0 -- -- 75
2021-01-31 23:00:00 12.3 11 Sudoeste 24 Oeste 0 -- -- 83
2021-01-31 22:00:00 12.6 12 Noroeste 31 Noroeste 0 -- -- 80
2021-01-31 21:00:00 10.4 4 Norte 13 Norte 0 -- -- 95
2021-01-31 20:00:00 10.8 5 Oeste 8 Este 0 -- -- 91
2021-01-31 19:00:00 12.5 3 Noroeste 8 Oeste 0 -- -- 80
2021-01-31 18:00:00 13.2 5 Oeste 9 Oeste 0 -- -- 83
2021-01-31 17:00:00 14.2 3 Oeste 8 Noroeste 0 -- -- 81
2021-01-31 16:00:00 14 3 Sudoeste 6 Sudoeste 0 -- -- 83
2021-01-31 15:00:00 12 2 Sudeste 6 Oeste 0 -- -- 95
2021-01-31 14:00:00 10.2 3 Oeste 12 Oeste 0.2 -- -- 95
2021-01-31 13:00:00 9.2 5 Noroeste 10 Noroeste 0.2 -- -- 95
2021-01-31 12:00:00 8.6 4 Noroeste 10 Noroeste 0.8 -- -- 95
2021-01-31 11:00:00 8.6 3 Oeste 12 Noroeste 0.4 -- -- 95
2021-01-31 10:00:00 8.2 6 Noroeste 9 Noroeste 0.2 -- -- 96
2021-01-31 09:00:00 8.5 5 Este 11 Este 0 -- -- 91
2021-01-31 08:00:00 8.4 5 Este 26 Oeste 0 -- -- 92
2021-01-31 07:00:00 8.4 9 Oeste 26 Sur 0 -- -- 92
2021-01-31 06:00:00 8.6 6 Oeste 42 Sudoeste 0.4 -- -- 91
2021-01-31 05:00:00 8.9 8 Oeste 53 Sudoeste 0.6 -- -- 89
2021-01-31 04:00:00 8.9 12 Oeste 47 Oeste 0.8 -- -- 89
2021-01-31 03:00:00 9 24 Oeste 49 Oeste 0.6 -- -- 86
2021-01-31 02:00:00 7.5 6 Este 21 Sudeste 0.4 -- -- 98
2021-01-31 01:00:00 7.3 11 Este 14 Este 1 -- -- 97
2021-01-31 00:00:00 7.9 8 Sudoeste 42 Oeste 0.2 -- -- 91
2021-01-30 23:00:00 7.2 2 Este 8 Noroeste 0.2 -- -- 99
2021-01-30 22:00:00 7.3 5 Sur 9 Sur 0.2 -- -- 98
2021-01-30 21:00:00 7.5 3 Noroeste 8 Noroeste 0.2 -- -- 96
2021-01-30 20:00:00 7.3 3 Oeste 9 Noroeste 0 -- -- 96
2021-01-30 19:00:00 7.3 3 Oeste 12 Noroeste 0 -- -- 97
2021-01-30 18:00:00 8.1 8 Oeste 12 Noroeste 0 -- -- 94
2021-01-30 17:00:00 9.5 5 Sudeste 11 Sur 0 -- -- 85
2021-01-30 16:00:00 8.2 9 Sur 17 Sudeste 1.2 -- -- 94
2021-01-30 15:00:00 9.1 4 Este 42 Noroeste 0.6 -- -- 90
2021-01-30 14:00:00 7.9 24 Noroeste 45 Noroeste 7.4 -- -- 87
2021-01-30 13:00:00 13 8 Nordeste 28 Oeste 0 -- -- 73
2021-01-30 12:00:00 13.7 9 Oeste 34 Oeste 0 -- -- 58
2021-01-30 11:00:00 13.2 18 Oeste 40 Oeste 0 -- -- 61
2021-01-30 10:00:00 12.8 17 Oeste 28 Oeste 0 -- -- 64
2021-01-30 09:00:00 12.6 8 Oeste 26 Oeste 0 -- -- 66
2021-01-30 08:00:00 13.3 18 Oeste 38 Oeste 0 -- -- 64
2021-01-30 07:00:00 13.6 14 Sudoeste 32 Oeste 0 -- -- 64
2021-01-30 06:00:00 12.4 4 Noroeste 10 Oeste 0.6 -- -- 86
2021-01-30 05:00:00 13.7 7 Sudoeste 48 Oeste 0 -- -- 78
2021-01-30 04:00:00 15.6 20 Sudoeste 43 Sudoeste 0 -- -- 63
2021-01-30 03:00:00 15.7 9 Oeste 28 Sudoeste 0 -- -- 62
2021-01-30 02:00:00 16.2 18 Sudoeste 42 Oeste 0 -- -- 61
2021-01-30 01:00:00 16.4 15 Sur 37 Sudoeste 0 -- -- 62
2021-01-30 00:00:00 15.7 15 Oeste 27 Oeste 0 -- -- 67